sensor_id;sensor_type;location;lat;lon;timestamp;pressure;altitude;pressure_sealevel;temperature;humidity
79791;BME280;69278;52.220;5.172;2023-07-22T00:01:27;101418.31;;;16.00;71.90
79791;BME280;69278;52.220;5.172;2023-07-22T00:03:55;101423.78;;;15.99;71.67
79791;BME280;69278;52.220;5.172;2023-07-22T00:06:21;101420.44;;;15.97;72.02
79791;BME280;69278;52.220;5.172;2023-07-22T00:08:49;101422.44;;;15.94;72.33
79791;BME280;69278;52.220;5.172;2023-07-22T00:11:17;101413.63;;;15.94;72.33
79791;BME280;69278;52.220;5.172;2023-07-22T00:13:43;101408.47;;;15.92;72.08
79791;BME280;69278;52.220;5.172;2023-07-22T00:16:10;101424.41;;;15.92;72.42
79791;BME280;69278;52.220;5.172;2023-07-22T00:18:37;101409.63;;;15.90;72.26
79791;BME280;69278;52.220;5.172;2023-07-22T00:21:04;101342.81;;;15.51;72.33
79791;BME280;69278;52.220;5.172;2023-07-22T00:23:30;101374.94;;;15.66;72.76
79791;BME280;69278;52.220;5.172;2023-07-22T00:25:57;101395.97;;;15.85;72.59
79791;BME280;69278;52.220;5.172;2023-07-22T00:28:23;101398.94;;;15.82;72.61
79791;BME280;69278;52.220;5.172;2023-07-22T00:30:50;101399.94;;;15.81;72.59
79791;BME280;69278;52.220;5.172;2023-07-22T00:33:20;101402.97;;;15.86;73.13
79791;BME280;69278;52.220;5.172;2023-07-22T00:35:49;101403.78;;;15.86;73.18
79791;BME280;69278;52.220;5.172;2023-07-22T00:38:19;101410.59;;;15.89;72.86
79791;BME280;69278;52.220;5.172;2023-07-22T00:40:46;101405.16;;;15.90;73.03
79791;BME280;69278;52.220;5.172;2023-07-22T00:43:13;101404.97;;;15.92;73.20
79791;BME280;69278;52.220;5.172;2023-07-22T00:45:39;101387.84;;;15.86;72.88
79791;BME280;69278;52.220;5.172;2023-07-22T00:48:07;101395.88;;;15.94;72.89
79791;BME280;69278;52.220;5.172;2023-07-22T00:50:35;101397.00;;;15.92;73.01
79791;BME280;69278;52.220;5.172;2023-07-22T00:53:01;101375.75;;;15.84;73.00
79791;BME280;69278;52.220;5.172;2023-07-22T00:55:28;101373.09;;;15.84;73.33
79791;BME280;69278;52.220;5.172;2023-07-22T00:57:55;101387.91;;;15.94;73.39
79791;BME280;69278;52.220;5.172;2023-07-22T01:00:22;101383.06;;;15.90;73.38
79791;BME280;69278;52.220;5.172;2023-07-22T01:02:48;101376.41;;;15.86;73.42
79791;BME280;69278;52.220;5.172;2023-07-22T01:05:16;101380.22;;;15.91;73.38
79791;BME280;69278;52.220;5.172;2023-07-22T01:07:43;101377.75;;;15.90;73.46
79791;BME280;69278;52.220;5.172;2023-07-22T01:10:10;101362.09;;;15.79;73.55
79791;BME280;69278;52.220;5.172;2023-07-22T01:12:36;101363.06;;;15.78;73.45
79791;BME280;69278;52.220;5.172;2023-07-22T01:15:04;101355.28;;;15.76;73.58
79791;BME280;69278;52.220;5.172;2023-07-22T01:17:36;101366.09;;;15.83;73.67
79791;BME280;69278;52.220;5.172;2023-07-22T01:20:04;101372.38;;;15.82;73.84
79791;BME280;69278;52.220;5.172;2023-07-22T01:22:32;101361.72;;;15.74;73.63
79791;BME280;69278;52.220;5.172;2023-07-22T01:24:59;101368.69;;;15.75;73.87
79791;BME280;69278;52.220;5.172;2023-07-22T01:27:26;101343.88;;;15.58;73.78
79791;BME280;69278;52.220;5.172;2023-07-22T01:29:53;101341.50;;;15.55;73.93
79791;BME280;69278;52.220;5.172;2023-07-22T01:32:20;101360.34;;;15.70;73.93
79791;BME280;69278;52.220;5.172;2023-07-22T01:34:46;101359.69;;;15.68;74.02
79791;BME280;69278;52.220;5.172;2023-07-22T01:37:13;101357.34;;;15.65;74.05
79791;BME280;69278;52.220;5.172;2023-07-22T01:39:39;101346.16;;;15.53;74.01
79791;BME280;69278;52.220;5.172;2023-07-22T01:42:06;101344.03;;;15.57;74.18
79791;BME280;69278;52.220;5.172;2023-07-22T01:44:32;101356.84;;;15.61;73.84
79791;BME280;69278;52.220;5.172;2023-07-22T01:47:02;101352.97;;;15.56;74.26
79791;BME280;69278;52.220;5.172;2023-07-22T01:49:29;101359.78;;;15.58;73.92
79791;BME280;69278;52.220;5.172;2023-07-22T01:51:55;101352.97;;;15.56;74.24
79791;BME280;69278;52.220;5.172;2023-07-22T01:54:22;101348.50;;;15.56;74.12
79791;BME280;69278;52.220;5.172;2023-07-22T01:56:48;101360.94;;;15.56;74.28
79791;BME280;69278;52.220;5.172;2023-07-22T01:59:15;101355.94;;;15.53;74.12
79791;BME280;69278;52.220;5.172;2023-07-22T02:01:41;101346.91;;;15.46;74.09
79791;BME280;69278;52.220;5.172;2023-07-22T02:04:08;101347.94;;;15.45;74.18
79791;BME280;69278;52.220;5.172;2023-07-22T02:06:35;101352.09;;;15.47;74.39
79791;BME280;69278;52.220;5.172;2023-07-22T02:09:02;101358.06;;;15.49;74.28
79791;BME280;69278;52.220;5.172;2023-07-22T02:11:35;101335.91;;;15.41;74.30
79791;BME280;69278;52.220;5.172;2023-07-22T02:14:02;101354.41;;;15.50;74.18
79791;BME280;69278;52.220;5.172;2023-07-22T02:16:36;101351.94;;;15.49;74.59
79791;BME280;69278;52.220;5.172;2023-07-22T02:19:03;101345.94;;;15.47;74.13
79791;BME280;69278;52.220;5.172;2023-07-22T02:21:30;101327.44;;;15.37;74.12
79791;BME280;69278;52.220;5.172;2023-07-22T02:23:57;101350.59;;;15.45;74.47
79791;BME280;69278;52.220;5.172;2023-07-22T02:26:23;101345.28;;;15.45;74.49
79791;BME280;69278;52.220;5.172;2023-07-22T02:28:51;101332.44;;;15.40;74.45
79791;BME280;69278;52.220;5.172;2023-07-22T02:31:17;101326.44;;;15.38;74.49
79791;BME280;69278;52.220;5.172;2023-07-22T02:33:44;101332.94;;;15.44;74.52
79791;BME280;69278;52.220;5.172;2023-07-22T02:36:10;101332.94;;;15.44;74.44
79791;BME280;69278;52.220;5.172;2023-07-22T02:38:37;101319.97;;;15.41;74.38
79791;BME280;69278;52.220;5.172;2023-07-22T02:41:04;101299.00;;;15.29;74.55
79791;BME280;69278;52.220;5.172;2023-07-22T02:43:36;101306.19;;;15.37;74.78
79791;BME280;69278;52.220;5.172;2023-07-22T02:46:04;101315.69;;;15.40;74.27
79791;BME280;69278;52.220;5.172;2023-07-22T02:48:31;101316.16;;;15.35;74.54
79791;BME280;69278;52.220;5.172;2023-07-22T02:51:05;101324.47;;;15.40;75.44
79791;BME280;69278;52.220;5.172;2023-07-22T02:53:32;101310.66;;;15.37;74.84
79791;BME280;69278;52.220;5.172;2023-07-22T02:55:59;101315.97;;;15.37;74.72
79791;BME280;69278;52.220;5.172;2023-07-22T02:58:26;101315.97;;;15.37;74.65
79791;BME280;69278;52.220;5.172;2023-07-22T03:00:52;101311.81;;;15.34;74.86
79791;BME280;69278;52.220;5.172;2023-07-22T03:03:19;101324.63;;;15.39;74.64
79791;BME280;69278;52.220;5.172;2023-07-22T03:05:45;101326.59;;;15.37;74.64
79791;BME280;69278;52.220;5.172;2023-07-22T03:08:13;101329.25;;;15.37;74.67
79791;BME280;69278;52.220;5.172;2023-07-22T03:10:40;101323.28;;;15.35;74.68
79791;BME280;69278;52.220;5.172;2023-07-22T03:13:06;101326.22;;;15.32;74.71
79791;BME280;69278;52.220;5.172;2023-07-22T03:15:33;101327.06;;;15.32;74.96
79791;BME280;69278;52.220;5.172;2023-07-22T03:18:00;101331.41;;;15.33;75.07
79791;BME280;69278;52.220;5.172;2023-07-22T03:20:27;101329.72;;;15.32;74.91
79791;BME280;69278;52.220;5.172;2023-07-22T03:22:53;101335.88;;;15.33;74.98
79791;BME280;69278;52.220;5.172;2023-07-22T03:25:20;101311.53;;;15.19;75.01
79791;BME280;69278;52.220;5.172;2023-07-22T03:27:47;101335.03;;;15.32;74.84
79791;BME280;69278;52.220;5.172;2023-07-22T03:30:15;101331.41;;;15.33;74.96
79791;BME280;69278;52.220;5.172;2023-07-22T03:32:44;101314.56;;;15.24;75.13
79791;BME280;69278;52.220;5.172;2023-07-22T03:35:11;101326.69;;;15.27;74.96
79791;BME280;69278;52.220;5.172;2023-07-22T03:37:41;101324.03;;;15.27;75.15
79791;BME280;69278;52.220;5.172;2023-07-22T03:40:08;101327.66;;;15.26;74.95
79791;BME280;69278;52.220;5.172;2023-07-22T03:42:50;101330.97;;;15.20;75.31
79791;BME280;69278;52.220;5.172;2023-07-22T03:45:18;101333.31;;;15.23;75.18
79791;BME280;69278;52.220;5.172;2023-07-22T03:47:46;101338.75;;;15.21;74.93
79791;BME280;69278;52.220;5.172;2023-07-22T03:50:13;101328.59;;;15.17;74.89
79791;BME280;69278;52.220;5.172;2023-07-22T03:52:39;101344.59;;;15.25;75.19
79791;BME280;69278;52.220;5.172;2023-07-22T03:55:06;101341.28;;;15.23;74.99
79791;BME280;69278;52.220;5.172;2023-07-22T03:57:33;101336.63;;;15.25;75.01
79791;BME280;69278;52.220;5.172;2023-07-22T04:00:02;101343.28;;;15.29;74.76
79791;BME280;69278;52.220;5.172;2023-07-22T04:02:30;101324.34;;;15.24;74.89
79791;BME280;69278;52.220;5.172;2023-07-22T04:04:56;101339.78;;;15.28;74.99
79791;BME280;69278;52.220;5.172;2023-07-22T04:07:23;101328.81;;;15.23;75.08
79791;BME280;69278;52.220;5.172;2023-07-22T04:09:49;101317.16;;;15.16;74.75
79791;BME280;69278;52.220;5.172;2023-07-22T04:12:16;101355.28;;;15.33;74.72
79791;BME280;69278;52.220;5.172;2023-07-22T04:14:43;101348.00;;;15.35;75.06
79791;BME280;69278;52.220;5.172;2023-07-22T04:17:12;101317.38;;;15.23;75.01
79791;BME280;69278;52.220;5.172;2023-07-22T04:19:41;101337.50;;;15.34;74.76
79791;BME280;69278;52.220;5.172;2023-07-22T04:22:09;101329.56;;;15.34;74.97
79791;BME280;69278;52.220;5.172;2023-07-22T04:24:35;101333.13;;;15.42;74.79
79791;BME280;69278;52.220;5.172;2023-07-22T04:27:02;101342.63;;;15.45;74.71
79791;BME280;69278;52.220;5.172;2023-07-22T04:29:29;101339.66;;;15.48;74.74
79791;BME280;69278;52.220;5.172;2023-07-22T04:31:59;101337.00;;;15.48;75.01
79791;BME280;69278;52.220;5.172;2023-07-22T04:34:30;101328.34;;;15.46;75.05
79791;BME280;69278;52.220;5.172;2023-07-22T04:36:57;101336.38;;;15.54;74.60
79791;BME280;69278;52.220;5.172;2023-07-22T04:39:24;101340.84;;;15.53;74.41
79791;BME280;69278;52.220;5.172;2023-07-22T04:41:51;101325.38;;;15.49;74.38
79791;BME280;69278;52.220;5.172;2023-07-22T04:44:19;101342.88;;;15.59;74.46
79791;BME280;69278;52.220;5.172;2023-07-22T04:46:45;101343.38;;;15.63;73.99
79791;BME280;69278;52.220;5.172;2023-07-22T04:49:12;101328.09;;;15.57;74.31
79791;BME280;69278;52.220;5.172;2023-07-22T04:51:39;101333.97;;;15.68;74.03
79791;BME280;69278;52.220;5.172;2023-07-22T04:54:06;101322.81;;;15.65;73.94
79791;BME280;69278;52.220;5.172;2023-07-22T04:56:32;101338.63;;;15.74;74.10
79791;BME280;69278;52.220;5.172;2023-07-22T04:58:58;101327.88;;;15.76;74.07
79791;BME280;69278;52.220;5.172;2023-07-22T05:01:25;101312.78;;;15.76;74.13
79791;BME280;69278;52.220;5.172;2023-07-22T05:03:52;101326.41;;;15.81;74.37
79791;BME280;69278;52.220;5.172;2023-07-22T05:06:21;101315.47;;;15.84;74.13
79791;BME280;69278;52.220;5.172;2023-07-22T05:08:48;101309.66;;;15.81;74.15
79791;BME280;69278;52.220;5.172;2023-07-22T05:11:15;101322.81;;;15.90;74.26
79791;BME280;69278;52.220;5.172;2023-07-22T05:13:41;101322.63;;;15.92;74.50
79791;BME280;69278;52.220;5.172;2023-07-22T05:16:08;101320.66;;;15.94;74.87
79791;BME280;69278;52.220;5.172;2023-07-22T05:18:34;101315.19;;;15.96;74.61
79791;BME280;69278;52.220;5.172;2023-07-22T05:21:01;101317.00;;;15.95;74.89
79791;BME280;69278;52.220;5.172;2023-07-22T05:23:27;101275.06;;;15.73;75.00
79791;BME280;69278;52.220;5.172;2023-07-22T05:25:54;101316.03;;;15.96;75.18
79791;BME280;69278;52.220;5.172;2023-07-22T05:28:20;101319.53;;;16.05;75.02
79791;BME280;69278;52.220;5.172;2023-07-22T05:30:50;101328.03;;;16.08;75.24
79791;BME280;69278;52.220;5.172;2023-07-22T05:33:17;101323.03;;;16.13;75.21
79791;BME280;69278;52.220;5.172;2023-07-22T05:35:43;101317.41;;;16.08;75.45
79791;BME280;69278;52.220;5.172;2023-07-22T05:38:13;101326.06;;;16.18;75.58
79791;BME280;69278;52.220;5.172;2023-07-22T05:40:40;101334.72;;;16.20;75.68
79791;BME280;69278;52.220;5.172;2023-07-22T05:43:06;101332.56;;;16.24;75.62
79791;BME280;69278;52.220;5.172;2023-07-22T05:45:33;101306.78;;;16.16;75.99
79791;BME280;69278;52.220;5.172;2023-07-22T05:48:00;101328.75;;;16.26;75.86
79791;BME280;69278;52.220;5.172;2023-07-22T05:50:26;101333.75;;;16.29;76.04
79791;BME280;69278;52.220;5.172;2023-07-22T05:52:53;101329.09;;;16.31;76.09
79791;BME280;69278;52.220;5.172;2023-07-22T05:55:19;101331.09;;;16.37;76.50
79791;BME280;69278;52.220;5.172;2023-07-22T05:57:46;101325.66;;;16.39;76.08
79791;BME280;69278;52.220;5.172;2023-07-22T06:00:13;101315.50;;;16.42;76.51
79791;BME280;69278;52.220;5.172;2023-07-22T06:02:39;101307.19;;;16.37;75.87
79791;BME280;69278;52.220;5.172;2023-07-22T06:05:06;101318.03;;;16.52;76.33
79791;BME280;69278;52.220;5.172;2023-07-22T06:07:33;101331.53;;;16.58;76.49
79791;BME280;69278;52.220;5.172;2023-07-22T06:09:59;101329.38;;;16.62;76.36
79791;BME280;69278;52.220;5.172;2023-07-22T06:12:26;101309.44;;;16.58;76.27
79791;BME280;69278;52.220;5.172;2023-07-22T06:14:57;101318.59;;;16.64;76.69
79791;BME280;69278;52.220;5.172;2023-07-22T06:17:24;101320.91;;;16.75;76.38
79791;BME280;69278;52.220;5.172;2023-07-22T06:19:51;101313.13;;;16.73;76.74
79791;BME280;69278;52.220;5.172;2023-07-22T06:22:17;101310.94;;;16.77;76.72
79791;BME280;69278;52.220;5.172;2023-07-22T06:24:44;101312.28;;;16.89;76.61
79791;BME280;69278;52.220;5.172;2023-07-22T06:27:10;101321.25;;;16.96;76.65
79791;BME280;69278;52.220;5.172;2023-07-22T06:29:37;101318.78;;;17.02;76.40
79791;BME280;69278;52.220;5.172;2023-07-22T06:32:04;101312.31;;;17.05;76.30
79791;BME280;69278;52.220;5.172;2023-07-22T06:34:31;101311.94;;;17.08;76.57
79791;BME280;69278;52.220;5.172;2023-07-22T06:36:58;101272.06;;;16.92;76.47
79791;BME280;69278;52.220;5.172;2023-07-22T06:39:24;101304.31;;;17.13;76.25
79791;BME280;69278;52.220;5.172;2023-07-22T06:41:51;101304.63;;;17.18;76.45
79791;BME280;69278;52.220;5.172;2023-07-22T06:44:17;101285.66;;;17.13;76.54
79791;BME280;69278;52.220;5.172;2023-07-22T06:46:43;101312.94;;;17.31;76.29
79791;BME280;69278;52.220;5.172;2023-07-22T06:49:11;101313.44;;;17.35;76.20
79791;BME280;69278;52.220;5.172;2023-07-22T06:51:37;101313.75;;;17.40;76.27
79791;BME280;69278;52.220;5.172;2023-07-22T06:54:04;101307.44;;;17.41;76.16
79791;BME280;69278;52.220;5.172;2023-07-22T06:56:30;101301.28;;;17.48;76.14
79791;BME280;69278;52.220;5.172;2023-07-22T06:58:57;101303.56;;;17.51;75.96
79791;BME280;69278;52.220;5.172;2023-07-22T07:01:24;101298.25;;;17.51;76.12
79791;BME280;69278;52.220;5.172;2023-07-22T07:03:51;101292.13;;;17.51;75.98
79791;BME280;69278;52.220;5.172;2023-07-22T07:06:17;101296.63;;;17.58;75.80
79791;BME280;69278;52.220;5.172;2023-07-22T07:08:44;101302.25;;;17.63;75.81
79791;BME280;69278;52.220;5.172;2023-07-22T07:11:10;101299.75;;;17.70;75.49
79791;BME280;69278;52.220;5.172;2023-07-22T07:13:37;101287.75;;;17.74;75.56
79791;BME280;69278;52.220;5.172;2023-07-22T07:18:50;101279.72;;;17.82;75.20
79791;BME280;69278;52.220;5.172;2023-07-22T07:21:18;101293.31;;;17.95;75.13
79791;BME280;69278;52.220;5.172;2023-07-22T07:23:45;101255.31;;;17.70;74.81
79791;BME280;69278;52.220;5.172;2023-07-22T07:26:12;101295.13;;;18.03;74.77
79791;BME280;69278;52.220;5.172;2023-07-22T07:28:38;101304.06;;;18.10;74.77
79791;BME280;69278;52.220;5.172;2023-07-22T07:31:05;101297.22;;;18.15;74.91
79791;BME280;69278;52.220;5.172;2023-07-22T07:33:33;101310.53;;;18.23;74.66
79791;BME280;69278;52.220;5.172;2023-07-22T07:36:00;101303.00;;;18.27;74.60
79791;BME280;69278;52.220;5.172;2023-07-22T07:38:26;101314.31;;;18.29;74.48
79791;BME280;69278;52.220;5.172;2023-07-22T07:40:56;101303.00;;;18.27;74.00
79791;BME280;69278;52.220;5.172;2023-07-22T07:43:23;101309.13;;;18.35;73.98
79791;BME280;69278;52.220;5.172;2023-07-22T07:45:49;101291.00;;;18.31;73.66
79791;BME280;69278;52.220;5.172;2023-07-22T07:48:17;101305.59;;;18.43;73.85
79791;BME280;69278;52.220;5.172;2023-07-22T07:50:43;101300.41;;;18.41;73.61
79791;BME280;69278;52.220;5.172;2023-07-22T07:53:10;101284.94;;;18.37;72.71
79791;BME280;69278;52.220;5.172;2023-07-22T07:55:36;101262.53;;;18.23;73.01
79791;BME280;69278;52.220;5.172;2023-07-22T07:58:03;101294.72;;;18.44;72.63
79791;BME280;69278;52.220;5.172;2023-07-22T08:00:29;101302.53;;;18.54;72.33
79791;BME280;69278;52.220;5.172;2023-07-22T08:02:58;101286.03;;;18.50;71.60
79791;BME280;69278;52.220;5.172;2023-07-22T08:05:24;101268.75;;;18.46;71.81
79791;BME280;69278;52.220;5.172;2023-07-22T08:07:51;101285.13;;;18.66;71.30
79791;BME280;69278;52.220;5.172;2023-07-22T08:10:17;101296.03;;;18.79;71.44
79791;BME280;69278;52.220;5.172;2023-07-22T08:12:44;101289.13;;;18.85;71.19
79791;BME280;69278;52.220;5.172;2023-07-22T08:15:10;101279.78;;;18.89;71.11
79791;BME280;69278;52.220;5.172;2023-07-22T08:17:37;101280.88;;;18.94;71.02
79791;BME280;69278;52.220;5.172;2023-07-22T08:20:04;101271.22;;;18.93;70.26
79791;BME280;69278;52.220;5.172;2023-07-22T08:22:33;101288.22;;;19.15;69.89
79791;BME280;69278;52.220;5.172;2023-07-22T08:24:59;101279.47;;;19.21;69.42
79791;BME280;69278;52.220;5.172;2023-07-22T08:27:26;101271.94;;;19.25;68.93
79791;BME280;69278;52.220;5.172;2023-07-22T08:29:52;101291.88;;;19.37;68.75
79791;BME280;69278;52.220;5.172;2023-07-22T08:32:19;101289.50;;;19.42;68.18
79791;BME280;69278;52.220;5.172;2023-07-22T08:34:45;101287.09;;;19.47;68.07
79791;BME280;69278;52.220;5.172;2023-07-22T08:37:12;101286.34;;;19.53;67.78
79791;BME280;69278;52.220;5.172;2023-07-22T08:39:39;101287.66;;;19.57;67.18
79791;BME280;69278;52.220;5.172;2023-07-22T08:42:07;101279.25;;;19.60;66.86
79791;BME280;69278;52.220;5.172;2023-07-22T08:44:38;101285.06;;;19.63;66.79
79791;BME280;69278;52.220;5.172;2023-07-22T08:47:10;101284.53;;;19.68;66.46
79791;BME280;69278;52.220;5.172;2023-07-22T08:49:46;101276.41;;;19.76;66.70
79791;BME280;69278;52.220;5.172;2023-07-22T08:52:16;101263.63;;;19.71;66.17
79791;BME280;69278;52.220;5.172;2023-07-22T08:54:44;101264.25;;;19.73;66.06
79791;BME280;69278;52.220;5.172;2023-07-22T08:57:12;101278.34;;;19.82;65.55
79791;BME280;69278;52.220;5.172;2023-07-22T08:59:38;101281.56;;;19.77;65.66
79791;BME280;69278;52.220;5.172;2023-07-22T09:02:10;101299.91;;;19.80;65.62
79791;BME280;69278;52.220;5.172;2023-07-22T09:04:38;101269.88;;;19.78;65.29
79791;BME280;69278;52.220;5.172;2023-07-22T09:07:07;101279.44;;;19.73;64.84
79791;BME280;69278;52.220;5.172;2023-07-22T09:09:34;101284.53;;;19.68;64.68
79791;BME280;69278;52.220;5.172;2023-07-22T09:12:01;101274.38;;;19.63;64.16
79791;BME280;69278;52.220;5.172;2023-07-22T09:14:30;101267.28;;;19.56;64.52
79791;BME280;69278;52.220;5.172;2023-07-22T09:17:03;101275.13;;;19.57;64.68
79791;BME280;69278;52.220;5.172;2023-07-22T09:19:30;101283.97;;;19.58;64.60
79791;BME280;69278;52.220;5.172;2023-07-22T09:21:57;101275.94;;;19.43;64.17
79791;BME280;69278;52.220;5.172;2023-07-22T09:24:26;101271.16;;;19.39;64.58
79791;BME280;69278;52.220;5.172;2023-07-22T09:26:58;101265.22;;;19.29;64.38
79791;BME280;69278;52.220;5.172;2023-07-22T09:29:35;101216.75;;;19.02;64.54
79791;BME280;69278;52.220;5.172;2023-07-22T09:32:02;101271.97;;;19.39;64.58
79791;BME280;69278;52.220;5.172;2023-07-22T09:34:29;101281.00;;;19.38;64.62
79791;BME280;69278;52.220;5.172;2023-07-22T09:36:58;101284.81;;;19.36;64.71
79791;BME280;69278;52.220;5.172;2023-07-22T09:39:26;101272.38;;;19.28;64.42
79791;BME280;69278;52.220;5.172;2023-07-22T09:41:53;101283.44;;;19.25;64.68
79791;BME280;69278;52.220;5.172;2023-07-22T09:44:20;101284.00;;;19.20;65.03
79791;BME280;69278;52.220;5.172;2023-07-22T09:46:48;101279.09;;;19.09;65.05
79791;BME280;69278;52.220;5.172;2023-07-22T09:49:17;101269.13;;;19.03;64.75
79791;BME280;69278;52.220;5.172;2023-07-22T09:51:44;101280.13;;;19.08;64.55
79791;BME280;69278;52.220;5.172;2023-07-22T09:54:27;101274.38;;;19.11;64.51
79791;BME280;69278;52.220;5.172;2023-07-22T09:56:55;101266.09;;;19.06;64.60
79791;BME280;69278;52.220;5.172;2023-07-22T09:59:22;101270.06;;;19.10;64.52
79791;BME280;69278;52.220;5.172;2023-07-22T10:01:50;101272.56;;;19.12;64.37
79791;BME280;69278;52.220;5.172;2023-07-22T10:04:19;101257.72;;;19.09;64.45
79791;BME280;69278;52.220;5.172;2023-07-22T10:06:48;101270.72;;;19.12;64.45
79791;BME280;69278;52.220;5.172;2023-07-22T10:09:15;101236.59;;;18.85;65.12
79791;BME280;69278;52.220;5.172;2023-07-22T10:11:42;101252.84;;;18.98;66.67
79791;BME280;69278;52.220;5.172;2023-07-22T10:14:10;101272.47;;;19.05;67.38
79791;BME280;69278;52.220;5.172;2023-07-22T10:16:39;101265.78;;;19.01;67.53
79791;BME280;69278;52.220;5.172;2023-07-22T10:19:06;101264.69;;;18.96;67.83
79791;BME280;69278;52.220;5.172;2023-07-22T10:21:34;101268.38;;;18.95;68.19
79791;BME280;69278;52.220;5.172;2023-07-22T10:24:02;101281.25;;;18.91;67.72
79791;BME280;69278;52.220;5.172;2023-07-22T10:26:30;101287.88;;;18.95;67.82
79791;BME280;69278;52.220;5.172;2023-07-22T10:29:13;101286.41;;;18.93;67.20
79791;BME280;69278;52.220;5.172;2023-07-22T10:31:40;101292.09;;;18.90;66.82
79791;BME280;69278;52.220;5.172;2023-07-22T10:34:06;101290.81;;;18.86;66.13
79791;BME280;69278;52.220;5.172;2023-07-22T10:36:33;101293.66;;;18.84;66.30
79791;BME280;69278;52.220;5.172;2023-07-22T10:38:59;101282.00;;;18.77;65.77
79791;BME280;69278;52.220;5.172;2023-07-22T10:41:29;101289.56;;;18.74;65.40
79791;BME280;69278;52.220;5.172;2023-07-22T10:43:57;101317.91;;;18.75;66.87
79791;BME280;69278;52.220;5.172;2023-07-22T10:46:32;101306.31;;;18.29;70.36
79791;BME280;69278;52.220;5.172;2023-07-22T10:49:13;101329.88;;;18.17;70.71
79791;BME280;69278;52.220;5.172;2023-07-22T10:51:49;101310.66;;;17.91;72.23
79791;BME280;69278;52.220;5.172;2023-07-22T10:54:32;101326.84;;;17.73;72.93
79791;BME280;69278;52.220;5.172;2023-07-22T10:57:04;101303.94;;;17.40;75.17
79791;BME280;69278;52.220;5.172;2023-07-22T10:59:52;101340.56;;;17.30;75.29
79791;BME280;69278;52.220;5.172;2023-07-22T11:02:26;101330.41;;;17.25;75.90
79791;BME280;69278;52.220;5.172;2023-07-22T11:04:56;101321.63;;;17.09;76.54
79791;BME280;69278;52.220;5.172;2023-07-22T11:07:42;101323.94;;;17.12;77.65
79791;BME280;69278;52.220;5.172;2023-07-22T11:10:15;101319.94;;;17.08;76.41
79791;BME280;69278;52.220;5.172;2023-07-22T11:12:45;101320.94;;;17.15;76.49
79791;BME280;69278;52.220;5.172;2023-07-22T11:15:15;101310.31;;;17.07;77.11
79791;BME280;69278;52.220;5.172;2023-07-22T11:17:42;101311.78;;;17.17;76.58
79791;BME280;69278;52.220;5.172;2023-07-22T11:20:09;101308.66;;;17.22;76.63
79791;BME280;69278;52.220;5.172;2023-07-22T11:22:39;101267.41;;;17.02;76.93
79791;BME280;69278;52.220;5.172;2023-07-22T11:25:07;101301.66;;;17.29;76.59
79791;BME280;69278;52.220;5.172;2023-07-22T11:27:34;101294.28;;;17.39;76.32
79791;BME280;69278;52.220;5.172;2023-07-22T11:30:02;101283.28;;;17.42;76.07
79791;BME280;69278;52.220;5.172;2023-07-22T11:32:30;101279.97;;;17.48;76.18
79791;BME280;69278;52.220;5.172;2023-07-22T11:34:56;101282.63;;;17.64;76.58
79791;BME280;69278;52.220;5.172;2023-07-22T11:37:23;101273.06;;;17.78;75.61
79791;BME280;69278;52.220;5.172;2023-07-22T11:39:49;101275.63;;;18.02;75.72
79791;BME280;69278;52.220;5.172;2023-07-22T11:42:16;101262.03;;;18.20;75.54
79791;BME280;69278;52.220;5.172;2023-07-22T11:44:43;101261.72;;;18.45;75.44
79791;BME280;69278;52.220;5.172;2023-07-22T11:47:10;101254.78;;;18.67;75.42
79791;BME280;69278;52.220;5.172;2023-07-22T11:49:41;101247.06;;;18.72;73.83
79791;BME280;69278;52.220;5.172;2023-07-22T11:52:15;101260.25;;;18.88;71.99
79791;BME280;69278;52.220;5.172;2023-07-22T11:54:45;101180.66;;;18.54;71.74
79791;BME280;69278;52.220;5.172;2023-07-22T11:57:17;101206.69;;;18.90;72.39
79791;BME280;69278;52.220;5.172;2023-07-22T12:02:16;101257.25;;;19.43;71.31
79791;BME280;69278;52.220;5.172;2023-07-22T12:04:50;101255.22;;;19.60;71.77
79791;BME280;69278;52.220;5.172;2023-07-22T12:07:38;101261.75;;;19.72;71.97
79791;BME280;69278;52.220;5.172;2023-07-22T12:10:07;101261.38;;;19.75;71.92
79791;BME280;69278;52.220;5.172;2023-07-22T12:12:39;101260.56;;;19.74;71.12
79791;BME280;69278;52.220;5.172;2023-07-22T12:15:09;101247.88;;;19.62;70.40
79791;BME280;69278;52.220;5.172;2023-07-22T12:18:02;101262.03;;;19.62;67.60
79791;BME280;69278;52.220;5.172;2023-07-22T12:20:31;101235.59;;;19.53;67.43
79791;BME280;69278;52.220;5.172;2023-07-22T12:22:58;101256.78;;;19.69;66.54
79791;BME280;69278;52.220;5.172;2023-07-22T12:25:25;101247.19;;;19.60;63.51
79791;BME280;69278;52.220;5.172;2023-07-22T12:27:51;101249.50;;;19.63;65.47
79791;BME280;69278;52.220;5.172;2023-07-22T12:30:18;101254.66;;;19.64;65.95
79791;BME280;69278;52.220;5.172;2023-07-22T12:32:46;101250.69;;;19.60;66.46
79791;BME280;69278;52.220;5.172;2023-07-22T12:35:13;101261.75;;;19.57;65.62
79791;BME280;69278;52.220;5.172;2023-07-22T12:37:40;101258.16;;;19.65;64.71
79791;BME280;69278;52.220;5.172;2023-07-22T12:40:07;101254.94;;;19.69;65.03
79791;BME280;69278;52.220;5.172;2023-07-22T12:42:36;101244.44;;;19.68;63.89
79791;BME280;69278;52.220;5.172;2023-07-22T12:45:04;101246.19;;;19.75;62.93
79791;BME280;69278;52.220;5.172;2023-07-22T12:47:31;101257.97;;;19.96;61.61
79791;BME280;69278;52.220;5.172;2023-07-22T12:49:57;101249.56;;;19.99;61.31
79791;BME280;69278;52.220;5.172;2023-07-22T12:52:24;101254.19;;;19.90;61.13
79791;BME280;69278;52.220;5.172;2023-07-22T12:54:50;101246.16;;;19.90;60.73
79791;BME280;69278;52.220;5.172;2023-07-22T12:57:17;101255.00;;;20.05;60.06
79791;BME280;69278;52.220;5.172;2023-07-22T12:59:43;101258.09;;;20.09;59.78